Terminal Aerodrome Forecast
Issued by NWS

Home | Current Version | Previous Version | Text Only | Print | Product List | Glossary On
Versions: 1 2 3 4 5 6 7 8 9 10 11 12
077
FTPA31 PHFO 171751
TAFHJH
TAF
PHJH 171751Z 1718/1818 VRB03KT P6SM FEW025 SCT045
     FM172200 01009KT P6SM VCSH SCT035 BKN060
     FM181200 04006KT P6SM FEW045
      AMD NOT SKED AFT 180400=

USA.gov is the U.S. government's official web portal to all federal, state and local government web resources and services.